Corona Range LRC

2020-09-27 19:55:00

  • imperial
Date Time Air Temperature Relative Humidity Dewpoint Windchill Heat Index Wind Speed Wind Dir. Rain Solar Radiation Soil Temperature
2m 2m 3m 3m 10cm
US/Mountain F % F F F MPH deg in MJ/m^2 F
max avg avg
2020-09-26 20:00:00 67.9 20.3 25.6 67.9 67.9 4.6 5.6 4.9 250.4 261.2 0.00 0.0000000 79.6
2020-09-26 20:05:00 67.9 20.5 25.8 67.9 67.9 4.7 5.3 4.5 255.1 263.7 0.00 0.0000000 79.5
2020-09-26 20:10:00 67.4 21.0 26.1 67.4 67.4 4.4 4.9 4.5 258.9 256.2 0.00 0.0000000 79.4
2020-09-26 20:15:00 66.8 21.6 26.2 66.8 66.8 4.2 4.9 4.4 258.0 260.7 0.00 0.0000000 79.3
2020-09-26 20:20:00 65.9 22.4 26.4 65.9 65.9 4.7 4.9 4.2 266.4 259.7 0.00 0.0000000 79.2
2020-09-26 20:25:00 65.1 23.2 26.6 65.1 65.1 4.7 5.5 4.6 259.4 259.9 0.00 0.0000000 79.1
2020-09-26 20:30:00 64.6 23.3 26.3 64.6 64.6 5.5 5.5 4.7 266.7 263.5 0.00 0.0000000 79.0
2020-09-26 20:35:00 65.1 22.8 26.1 65.1 65.1 5.1 5.6 5.1 263.6 262.9 0.00 0.0000000 78.9
2020-09-26 20:40:00 65.6 22.4 26.2 65.6 65.6 4.4 5.5 5.0 268.7 263.8 0.00 0.0000000 78.8
2020-09-26 20:45:00 64.6 23.4 26.4 64.6 64.6 4.9 5.6 4.7 282.9 277.1 0.00 0.0000000 78.7
2020-09-26 20:50:00 65.3 22.6 26.1 65.3 65.3 4.6 5.8 5.4 256.1 261.9 0.00 0.0000000 78.6
2020-09-26 20:55:00 65.9 22.0 26.0 65.9 65.9 5.3 6.2 5.5 254.7 257.6 0.00 0.0000000 78.5
2020-09-26 21:00:00 66.5 21.3 25.7 66.5 66.5 5.8 6.0 5.5 254.0 258.5 0.00 0.0000000 78.4
2020-09-26 21:05:00 66.7 21.0 25.5 66.7 66.7 5.1 6.0 5.4 252.9 259.3 0.00 0.0000000 78.3
2020-09-26 21:10:00 66.7 21.1 25.6 66.7 66.7 4.9 5.8 5.1 259.7 264.0 0.00 0.0000000 78.2
2020-09-26 21:15:00 66.5 21.0 25.3 66.5 66.5 4.9 5.8 5.1 273.1 268.0 0.00 0.0000000 78.1
2020-09-26 21:20:00 67.1 20.6 25.3 67.1 67.1 5.1 5.6 5.1 265.8 265.7 0.00 0.0000000 78.0
2020-09-26 21:25:00 66.7 20.9 25.4 66.7 66.7 5.3 6.2 5.2 251.4 250.3 0.00 0.0000000 78.0
2020-09-26 21:30:00 65.3 22.7 26.2 65.3 65.3 3.5 5.5 4.2 245.6 245.1 0.00 0.0000000 77.9
2020-09-26 21:35:00 63.9 23.2 25.6 63.9 63.9 3.8 4.0 3.7 229.2 225.9 0.00 0.0000000 77.8
2020-09-26 21:40:00 64.1 22.4 24.9 64.1 64.1 4.4 4.6 3.9 251.3 241.8 0.00 0.0000000 77.7
2020-09-26 21:45:00 66.3 20.1 24.1 66.3 66.3 5.3 6.5 5.3 261.5 253.4 0.00 0.0000000 77.6
2020-09-26 21:50:00 67.6 18.9 23.6 67.6 67.6 6.5 6.9 5.8 267.9 254.5 0.00 0.0000000 77.5
2020-09-26 21:55:00 67.7 18.9 23.7 67.7 67.7 5.6 7.1 5.9 260.8 255.2 0.00 0.0000000 77.4
2020-09-26 22:00:00 67.7 18.5 23.3 67.7 67.7 6.7 7.2 5.8 260.7 256.7 0.00 0.0000000 77.3
2020-09-26 22:05:00 68.7 17.7 23.0 68.7 68.7 6.3 8.8 7.0 267.9 262.8 0.00 0.0000000 77.3
2020-09-26 22:10:00 68.7 17.7 23.1 68.7 68.7 7.2 9.0 6.8 265.5 267.2 0.00 0.0000000 77.2
2020-09-26 22:15:00 68.4 17.8 22.9 68.4 68.4 6.2 8.0 6.4 268.2 266.4 0.00 0.0000000 77.1
2020-09-26 22:20:00 68.1 18.0 23.0 68.1 68.1 6.2 7.2 6.2 245.9 260.6 0.00 0.0000000 77.0
2020-09-26 22:25:00 67.9 17.8 22.6 67.9 67.9 6.3 7.2 6.4 255.2 256.5 0.00 0.0000000 76.9
2020-09-26 22:30:00 67.6 17.9 22.4 67.6 67.6 6.3 7.2 5.9 255.6 256.5 0.00 0.0000000 76.8
2020-09-26 22:35:00 67.7 17.9 22.4 67.7 67.7 6.0 8.0 6.2 244.0 255.5 0.00 0.0000000 76.7
2020-09-26 22:40:00 67.7 18.0 22.7 67.7 67.7 6.0 8.1 6.3 247.3 257.4 0.00 0.0000000 76.7
2020-09-26 22:45:00 66.5 18.9 22.9 66.5 66.5 4.7 6.2 5.0 251.6 255.6 0.00 0.0000000 76.6
2020-09-26 22:50:00 65.8 19.6 23.1 65.8 65.8 5.1 6.0 5.3 262.0 257.3 0.00 0.0000000 76.5
2020-09-26 22:55:00 65.7 19.4 22.8 65.7 65.7 6.0 7.1 5.7 285.6 254.1 0.00 0.0000000 76.4
2020-09-26 23:00:00 66.3 18.8 22.5 66.3 66.3 7.4 7.8 5.7 267.0 259.0 0.00 0.0000000 76.4
2020-09-26 23:05:00 66.9 18.4 22.5 66.9 66.9 6.3 8.0 6.1 241.1 250.7 0.00 0.0000000 76.3
2020-09-26 23:10:00 66.9 18.5 22.5 66.9 66.9 6.3 6.9 5.9 232.7 246.9 0.00 0.0000000 76.2
2020-09-26 23:15:00 67.2 18.0 22.2 67.2 67.2 6.7 7.2 6.2 232.3 247.2 0.00 0.0000000 76.1
2020-09-26 23:20:00 67.2 18.2 22.5 67.2 67.2 4.9 7.2 6.0 240.3 245.9 0.00 0.0000000 76.1
2020-09-26 23:25:00 65.9 19.9 23.5 65.9 65.9 3.0 6.5 4.3 196.6 233.4 0.00 0.0000000 76.0
2020-09-26 23:30:00 63.4 21.7 23.5 63.4 63.4 2.6 3.1 2.5 195.0 212.4 0.00 0.0000000 76.0
2020-09-26 23:35:00 62.3 22.3 23.3 62.3 62.3 4.6 4.6 3.1 242.9 212.6 0.00 0.0000000 75.9
2020-09-26 23:40:00 65.8 18.4 21.6 65.8 65.8 8.0 9.2 5.9 249.9 241.7 0.00 0.0000000 75.8
2020-09-26 23:45:00 68.5 17.0 21.9 68.5 68.5 6.5 10.1 7.5 253.9 256.6 0.00 0.0000000 75.8
2020-09-26 23:50:00 69.0 17.0 22.3 69.0 69.0 7.4 9.7 7.4 287.0 263.1 0.00 0.0000000 75.7
2020-09-26 23:55:00 68.7 17.2 22.3 68.7 68.7 6.9 9.2 7.0 254.2 262.2 0.00 0.0000000 75.7
2020-09-27 00:00:00 68.7 17.2 22.4 68.7 68.7 6.2 9.2 7.5 258.9 268.2 0.00 0.0000000 75.6
2020-09-27 00:05:00 68.9 17.0 22.3 68.9 68.9 6.2 9.9 7.6 259.3 265.9 0.00 0.0000000 75.5
2020-09-27 00:10:00 69.0 16.9 22.2 69.0 69.0 7.4 8.7 7.6 269.3 265.4 0.00 0.0000000 75.5
2020-09-27 00:15:00 69.1 16.9 22.2 69.1 69.1 8.7 10.8 7.6 260.5 265.1 0.00 0.0000000 75.4
2020-09-27 00:20:00 69.0 17.1 22.5 69.0 69.0 5.6 9.0 7.3 242.1 260.8 0.00 0.0000000 75.4
2020-09-27 00:25:00 68.6 17.5 22.8 68.6 68.6 5.3 7.8 6.2 235.0 259.6 0.00 0.0000000 75.3
2020-09-27 00:30:00 68.9 17.2 22.5 68.9 68.9 8.7 9.6 7.4 257.3 259.5 0.00 0.0000000 75.3
2020-09-27 00:35:00 69.1 17.0 22.4 69.1 69.1 9.2 10.6 8.3 249.4 265.2 0.00 0.0000000 75.2
2020-09-27 00:40:00 69.2 16.9 22.4 69.2 69.2 9.4 11.3 8.8 290.8 266.1 0.00 0.0000000 75.1
2020-09-27 00:45:00 69.4 16.6 22.2 69.4 69.4 8.1 11.2 8.9 264.9 264.6 0.00 0.0000000 75.1
2020-09-27 00:50:00 69.6 16.4 22.0 69.6 69.6 10.5 11.7 9.4 271.3 268.9 0.00 0.0000000 75.0
2020-09-27 00:55:00 69.9 15.9 21.4 69.9 69.9 9.6 13.0 9.3 271.1 265.2 0.00 0.0000000 75.0
2020-09-27 01:00:00 70.2 15.7 21.4 70.2 70.2 11.2 13.0 10.3 272.0 262.5 0.00 0.0000000 74.9
2020-09-27 01:05:00 70.3 16.0 21.9 70.3 70.3 12.8 14.6 10.9 270.9 265.1 0.00 0.0000000 74.9
2020-09-27 01:10:00 70.2 16.5 22.6 70.2 70.2 10.1 13.3 11.5 253.6 264.0 0.00 0.0000000 74.8
2020-09-27 01:15:00 69.7 17.0 22.9 69.7 69.7 8.0 14.4 11.0 255.8 268.2 0.00 0.0000000 74.7
2020-09-27 01:20:00 69.0 17.5 23.1 69.0 69.0 10.8 13.3 10.2 266.5 265.4 0.00 0.0000000 74.6
2020-09-27 01:25:00 69.2 17.4 23.1 69.2 69.2 13.3 15.3 10.0 269.5 272.2 0.00 0.0000000 74.5
2020-09-27 01:30:00 70.2 16.8 23.1 70.2 70.2 11.5 16.2 11.8 262.5 271.3 0.00 0.0000000 74.4
2020-09-27 01:35:00 70.2 16.8 23.0 70.2 70.2 14.2 16.0 11.2 275.6 270.3 0.00 0.0000000 74.4
2020-09-27 01:40:00 70.1 17.0 23.2 70.1 70.1 12.1 14.9 11.7 265.1 271.1 0.00 0.0000000 74.3
2020-09-27 01:45:00 70.0 17.2 23.4 70.0 70.0 9.6 13.5 11.4 276.1 272.0 0.00 0.0000000 74.3
2020-09-27 01:50:00 70.5 16.9 23.4 70.5 70.5 12.1 16.9 13.4 284.5 273.8 0.00 0.0000000 74.2
2020-09-27 01:55:00 70.6 16.7 23.3 70.6 70.6 14.7 17.4 13.4 272.1 273.0 0.00 0.0000000 74.1
2020-09-27 02:00:00 70.8 16.9 23.7 70.8 70.8 10.1 18.0 13.6 269.0 275.8 0.00 0.0000000 74.0
2020-09-27 02:05:00 70.3 17.2 23.6 70.3 70.3 12.8 15.8 12.6 279.9 272.8 0.00 0.0000000 74.0
2020-09-27 02:10:00 70.2 17.2 23.6 70.2 70.2 11.3 16.4 12.5 284.5 277.0 0.00 0.0000000 73.9
2020-09-27 02:15:00 69.9 17.3 23.5 69.9 69.9 12.1 14.2 11.4 265.2 275.6 0.00 0.0000000 73.9
2020-09-27 02:20:00 69.4 17.8 23.7 69.4 69.4 8.5 14.2 10.9 267.0 272.6 0.00 0.0000000 73.8
2020-09-27 02:25:00 68.6 18.1 23.6 68.6 68.6 11.5 11.5 9.1 284.5 271.9 0.00 0.0000000 73.8
2020-09-27 02:30:00 69.2 17.9 23.7 69.2 69.2 10.6 13.5 10.1 268.9 272.7 0.00 0.0000000 73.8
2020-09-27 02:35:00 69.5 17.5 23.5 69.5 69.5 11.3 15.1 11.1 274.1 269.2 0.00 0.0000000 73.7
2020-09-27 02:40:00 69.3 17.7 23.6 69.3 69.3 9.7 12.1 9.8 279.4 274.2 0.00 0.0000000 73.7
2020-09-27 02:45:00 69.2 17.8 23.5 69.2 69.2 9.6 13.9 10.5 274.7 269.9 0.00 0.0000000 73.7
2020-09-27 02:50:00 68.6 17.9 23.3 68.6 68.6 10.1 12.1 9.5 217.6 262.9 0.00 0.0000000 73.6
2020-09-27 02:55:00 68.6 18.1 23.5 68.6 68.6 8.5 13.1 9.7 253.4 266.3 0.00 0.0000000 73.6
2020-09-27 03:00:00 68.7 17.7 23.1 68.7 68.7 11.9 13.1 10.3 268.1 264.8 0.00 0.0000000 73.6
2020-09-27 03:05:00 69.4 17.5 23.4 69.4 69.4 13.0 16.4 11.6 269.7 270.7 0.00 0.0000000 73.5
2020-09-27 03:10:00 69.5 17.8 23.9 69.5 69.5 10.1 14.7 11.9 263.4 267.8 0.00 0.0000000 73.5
2020-09-27 03:15:00 69.2 18.2 24.2 69.2 69.2 21.4 21.4 13.4 275.6 262.9 0.00 0.0000000 73.5
2020-09-27 03:20:00 68.8 18.9 24.7 68.8 68.8 13.9 19.8 15.2 242.4 262.9 0.00 0.0000000 73.5
2020-09-27 03:25:00 68.3 19.5 25.1 68.3 68.3 12.1 17.6 14.2 263.7 260.4 0.00 0.0000000 73.4
2020-09-27 03:30:00 68.2 20.1 25.6 68.2 68.2 16.5 20.3 16.1 255.9 263.2 0.00 0.0000000 73.4
2020-09-27 03:35:00 67.8 20.6 25.9 67.8 67.8 15.5 21.4 14.5 263.7 264.1 0.00 0.0000000 73.4
2020-09-27 03:40:00 67.8 20.8 26.2 67.8 67.8 11.5 17.8 13.6 252.7 261.8 0.00 0.0000000 73.4
2020-09-27 03:45:00 68.1 20.8 26.5 68.1 68.1 10.5 19.2 13.5 265.7 265.4 0.00 0.0000000 73.4
2020-09-27 03:50:00 67.9 21.1 26.7 67.9 67.9 13.7 16.7 13.0 275.4 260.8 0.00 0.0000000 73.3
2020-09-27 03:55:00 67.4 21.8 26.9 67.4 67.4 11.0 16.2 12.1 270.9 259.6 0.00 0.0000000 73.3
2020-09-27 04:00:00 67.2 22.1 27.2 67.2 67.2 11.0 14.2 11.6 250.5 258.5 0.00 0.0000000 73.3
2020-09-27 04:05:00 66.8 22.6 27.3 66.8 66.8 10.1 14.7 10.7 228.5 255.0 0.00 0.0000000 73.3
2020-09-27 04:10:00 66.6 23.1 27.7 66.6 66.6 9.6 13.0 10.5 252.4 261.4 0.00 0.0000000 73.3
2020-09-27 04:15:00 67.2 22.6 27.7 67.2 67.2 12.4 16.4 11.4 260.4 264.6 0.00 0.0000000 73.2
2020-09-27 04:20:00 68.3 22.2 28.1 68.3 68.3 14.7 19.0 13.4 266.9 267.0 0.00 0.0000000 73.2
2020-09-27 04:25:00 68.6 22.4 28.7 68.6 68.6 16.7 20.3 16.4 252.5 266.9 0.00 0.0000000 73.2
2020-09-27 04:30:00 68.1 22.9 28.8 68.1 68.1 16.7 20.1 15.1 252.7 267.6 0.00 0.0000000 73.2
2020-09-27 04:35:00 67.8 23.2 28.8 67.8 67.8 16.9 24.0 14.9 251.8 266.8 0.00 0.0000000 73.2
2020-09-27 04:40:00 68.0 23.4 29.2 68.0 68.0 17.1 19.9 15.2 278.4 266.8 0.00 0.0000000 73.1
2020-09-27 04:45:00 67.8 23.8 29.5 67.8 67.8 12.4 19.0 14.2 261.3 269.7 0.00 0.0000000 73.1
2020-09-27 04:50:00 67.6 24.1 29.6 67.6 67.6 14.6 16.5 13.2 264.8 272.7 0.00 0.0000000 73.1
2020-09-27 04:55:00 67.6 24.1 29.7 67.6 67.6 11.9 17.2 14.0 251.6 270.2 0.00 0.0000000 73.1
2020-09-27 05:00:00 67.6 24.4 29.9 67.6 67.6 17.4 17.4 13.6 244.5 267.7 0.00 0.0000000 73.1
2020-09-27 05:05:00 67.3 24.7 30.0 67.3 67.3 13.3 18.1 13.6 258.9 263.4 0.00 0.0000000 73.1
2020-09-27 05:10:00 67.1 25.1 30.2 67.1 67.1 11.2 16.4 12.9 245.5 268.2 0.00 0.0000000 73.1
2020-09-27 05:15:00 66.5 25.5 30.1 66.5 66.5 11.0 15.6 12.1 265.8 264.9 0.00 0.0000000 73.1
2020-09-27 05:20:00 65.9 26.1 30.0 65.9 65.9 11.9 14.6 12.4 262.7 259.7 0.00 0.0000000 73.1
2020-09-27 05:25:00 65.6 26.5 30.2 65.6 65.6 9.6 16.0 11.9 259.4 258.0 0.00 0.0000000 73.1
2020-09-27 05:30:00 65.6 26.6 30.3 65.6 65.6 13.7 14.7 10.6 257.2 267.9 0.00 0.0000000 73.0
2020-09-27 05:35:00 65.8 26.4 30.3 65.8 65.8 13.7 15.6 11.5 263.4 269.0 0.00 0.0000000 73.1
2020-09-27 05:40:00 65.5 26.6 30.2 65.5 65.5 13.1 14.6 11.1 265.0 266.0 0.00 0.0000000 73.0
2020-09-27 05:45:00 65.1 27.2 30.4 65.1 65.1 10.3 15.6 11.0 257.7 266.9 0.00 0.0000000 73.0
2020-09-27 05:50:00 64.6 27.7 30.5 64.6 64.6 9.4 13.0 9.6 253.4 260.6 0.00 0.0000000 73.1
2020-09-27 05:55:00 64.0 28.5 30.6 64.0 64.0 8.1 10.6 7.9 266.8 259.4 0.00 0.0000000 73.1
2020-09-27 06:00:00 65.0 27.3 30.5 65.0 65.0 11.0 14.4 10.4 281.6 268.7 0.00 0.0000000 73.0
2020-09-27 06:05:00 65.3 26.9 30.4 65.3 65.3 13.0 13.7 11.2 270.3 273.2 0.00 0.0000000 73.1
2020-09-27 06:10:00 65.4 26.7 30.3 65.4 65.4 12.8 15.6 11.2 266.7 273.3 0.00 0.0000000 73.0
2020-09-27 06:15:00 65.3 27.1 30.5 65.3 65.3 9.2 13.0 10.7 291.9 272.9 0.00 0.0000000 73.0
2020-09-27 06:20:00 65.0 27.2 30.4 65.0 65.0 10.5 14.0 10.3 288.2 274.0 0.00 0.0000000 73.0
2020-09-27 06:25:00 64.5 27.8 30.5 64.5 64.5 7.8 10.6 8.8 271.7 267.3 0.00 0.0000000 73.0
2020-09-27 06:30:00 64.4 27.5 30.1 64.4 64.4 11.0 12.8 8.6 250.5 266.4 0.00 0.0000000 73.0
2020-09-27 06:35:00 64.7 27.6 30.4 64.7 64.7 7.1 11.0 8.7 283.6 266.8 0.00 0.0000000 73.0
2020-09-27 06:40:00 64.3 27.6 30.1 64.3 64.3 9.4 11.5 8.4 274.4 261.5 0.00 0.0000000 73.0
2020-09-27 06:45:00 64.3 27.7 30.2 64.3 64.3 11.2 11.5 8.7 263.8 267.5 0.00 0.0000000 73.0
2020-09-27 06:50:00 64.5 27.5 30.1 64.5 64.5 8.5 12.6 9.9 249.5 262.9 0.00 0.0000000 72.9
2020-09-27 06:55:00 64.2 27.7 30.1 64.2 64.2 12.8 12.8 10.3 261.6 258.4 0.00 0.0000000 73.0
2020-09-27 07:00:00 64.1 28.0 30.3 64.1 64.1 11.2 15.3 11.0 276.0 259.2 0.00 0.0002470 73.0
2020-09-27 07:05:00 63.9 28.0 30.1 63.9 63.9 14.0 14.2 11.5 256.8 257.7 0.00 0.0028516 72.9
2020-09-27 07:10:00 63.7 28.3 30.3 63.7 63.7 10.6 15.8 11.5 237.7 257.2 0.00 0.0061383 72.9
2020-09-27 07:15:00 63.9 28.3 30.3 63.9 63.9 12.8 14.0 11.3 273.8 262.3 0.00 0.0091768 72.9
2020-09-27 07:20:00 63.9 28.2 30.3 63.9 63.9 11.3 15.1 11.4 267.4 264.2 0.00 0.0099155 72.9
2020-09-27 07:25:00 64.3 27.6 30.1 64.3 64.3 11.0 14.2 12.1 268.2 265.7 0.00 0.0151686 72.9
2020-09-27 07:30:00 64.3 27.6 30.1 64.3 64.3 12.2 14.9 11.3 276.3 264.3 0.00 0.0128035 72.9
2020-09-27 07:35:00 64.3 27.9 30.4 64.3 64.3 10.5 14.6 11.0 263.7 261.5 0.00 0.0074746 72.9
2020-09-27 07:40:00 64.0 28.2 30.4 64.0 64.0 9.0 14.6 10.3 257.9 256.4 0.00 0.0080246 72.9
2020-09-27 07:45:00 64.0 27.8 30.1 64.0 64.0 11.5 15.1 10.4 265.3 258.0 0.00 0.0114918 72.9
2020-09-27 07:50:00 64.3 27.7 30.2 64.3 64.3 13.0 14.9 11.2 257.0 254.5 0.00 0.0153659 72.9
2020-09-27 07:55:00 64.4 27.9 30.5 64.4 64.4 10.6 14.7 11.4 237.3 250.1 0.00 0.0191351 72.9
2020-09-27 08:00:00 64.6 27.8 30.6 64.6 64.6 9.7 14.4 11.3 253.8 251.3 0.00 0.0243478 72.9
2020-09-27 08:05:00 65.1 27.6 30.8 65.1 65.1 9.6 13.7 10.5 262.7 251.7 0.00 0.0280503 72.9
2020-09-27 08:10:00 65.8 26.4 30.3 65.8 65.8 12.1 13.7 11.0 246.4 247.3 0.00 0.0330092 72.9
2020-09-27 08:15:00 66.6 25.3 29.9 66.6 66.6 13.9 13.9 11.0 244.1 245.9 0.00 0.0420726 72.9
2020-09-27 08:20:00 67.2 24.9 30.1 67.2 67.2 15.6 15.6 12.3 242.9 245.0 0.00 0.0457390 72.9
2020-09-27 08:25:00 68.0 24.2 30.1 68.0 68.0 12.2 14.4 11.9 233.1 243.3 0.00 0.0479751 73.0
2020-09-27 08:30:00 68.5 23.6 29.9 68.5 68.5 12.2 16.2 13.4 257.7 246.8 0.00 0.0519371 73.0
2020-09-27 08:35:00 69.5 23.4 30.5 69.5 69.5 11.0 15.8 11.9 251.7 253.3 0.00 0.0566259 73.0
2020-09-27 08:40:00 70.5 22.0 29.8 70.5 70.5 10.5 16.7 12.1 253.5 256.3 0.00 0.0610134 73.1
2020-09-27 08:45:00 71.3 20.9 29.2 71.3 71.3 7.8 15.6 12.7 262.3 260.2 0.00 0.0647791 73.1
2020-09-27 08:50:00 71.7 19.8 28.2 71.7 71.7 11.7 15.8 12.6 274.8 263.8 0.00 0.0681064 73.1
2020-09-27 08:55:00 72.3 19.0 27.6 72.3 72.3 13.0 16.7 12.3 260.5 261.0 0.00 0.0699261 73.1
2020-09-27 09:00:00 73.1 18.3 27.5 73.1 73.1 12.4 16.2 12.2 273.3 260.0 0.00 0.0735402 73.1
2020-09-27 09:05:00 73.3 17.8 26.9 73.3 73.3 14.6 18.1 13.9 249.7 265.7 0.00 0.0768623 73.1
2020-09-27 09:10:00 73.6 17.4 26.6 73.6 73.6 11.9 17.1 13.7 259.8 259.8 0.00 0.0797454 73.1
2020-09-27 09:15:00 74.2 17.2 26.9 74.2 74.2 11.9 14.7 11.8 258.0 262.7 0.00 0.0833605 73.1
2020-09-27 09:20:00 74.5 16.5 26.1 74.5 74.5 15.6 16.0 12.4 270.4 271.4 0.00 0.0865725 73.2
2020-09-27 09:25:00 74.8 16.7 26.6 74.8 74.8 9.9 16.9 13.2 264.2 268.3 0.00 0.0900319 73.2
2020-09-27 09:30:00 75.5 15.5 25.4 75.5 75.5 14.9 17.1 12.3 273.3 264.6 0.00 0.0935149 73.3
2020-09-27 09:35:00 75.4 16.5 26.8 75.4 75.4 12.4 17.6 13.3 238.4 269.5 0.00 0.0962141 73.3
2020-09-27 09:40:00 75.3 15.9 25.8 75.3 75.3 14.7 18.3 14.7 274.4 261.7 0.00 0.0994280 73.4
2020-09-27 09:45:00 75.5 16.3 26.6 75.5 75.5 9.9 18.3 14.4 250.7 258.9 0.00 0.1025048 73.4
2020-09-27 09:50:00 76.4 16.5 27.6 76.4 76.4 10.3 17.2 12.3 269.6 267.7 0.00 0.1053356 73.5
2020-09-27 09:55:00 76.5 15.0 25.5 76.5 76.5 15.3 19.0 13.8 257.1 269.1 0.00 0.1079947 73.5
2020-09-27 10:00:00 76.9 15.3 26.2 76.9 76.9 13.9 19.6 13.2 292.1 276.9 0.00 0.1104623 73.6
2020-09-27 10:05:00 77.3 15.3 26.5 77.3 77.3 11.0 19.6 13.0 260.2 273.7 0.00 0.1128314 73.7
2020-09-27 10:10:00 77.5 14.9 26.0 77.5 77.5 18.5 18.5 13.9 275.6 274.1 0.00 0.1153163 73.8
2020-09-27 10:15:00 77.1 15.2 26.2 77.1 77.1 14.0 19.0 15.2 251.0 272.5 0.00 0.1176292 73.9
2020-09-27 10:20:00 77.7 14.0 24.7 77.7 77.7 13.7 19.4 15.2 268.5 266.2 0.00 0.1209938 74.0
2020-09-27 10:25:00 78.1 14.6 26.0 78.1 78.1 19.9 20.3 14.1 260.9 268.5 0.00 0.1232847 74.1
2020-09-27 10:30:00 77.7 15.0 26.4 77.7 77.7 15.3 18.1 15.0 260.6 262.4 0.00 0.1258627 74.2
2020-09-27 10:35:00 77.7 14.0 24.7 77.7 77.7 15.6 19.6 14.6 276.7 262.5 0.00 0.1284225 74.3
2020-09-27 10:40:00 79.1 14.0 25.8 79.1 79.1 13.0 18.0 14.2 243.7 263.4 0.00 0.1308715 74.4
2020-09-27 10:45:00 78.8 13.4 24.5 78.8 78.8 17.6 20.3 14.7 249.2 255.5 0.00 0.1313512 74.5
2020-09-27 10:50:00 79.2 12.9 23.9 79.2 79.2 18.5 20.1 16.0 280.6 258.5 0.00 0.1325560 74.6
2020-09-27 10:55:00 79.4 11.9 22.1 79.4 79.4 17.2 22.1 16.1 275.2 261.4 0.00 0.1358944 74.7
2020-09-27 11:00:00 79.3 11.7 21.7 79.3 79.3 19.4 21.5 17.8 256.7 272.7 0.00 0.1371234 74.8
2020-09-27 11:05:00 79.0 12.1 22.3 79.0 79.0 17.8 19.9 16.6 270.6 280.2 0.00 0.1375896 74.8
2020-09-27 11:10:00 79.1 12.4 23.0 79.1 79.1 12.8 21.9 16.7 301.2 286.6 0.00 0.1386957 74.9
2020-09-27 11:15:00 79.6 12.4 23.4 79.6 79.6 14.2 21.9 16.6 295.2 274.7 0.00 0.1422137 74.9
2020-09-27 11:20:00 80.3 12.6 24.2 80.3 80.3 10.5 19.2 14.1 295.6 276.5 0.00 0.1447565 75.0
2020-09-27 11:25:00 79.9 11.9 22.5 79.9 79.9 19.0 21.0 15.6 275.2 268.8 0.00 0.1463622 75.1
2020-09-27 11:30:00 79.9 12.6 23.9 79.9 79.9 14.0 21.9 14.8 240.4 273.7 0.00 0.1483862 75.1
2020-09-27 11:35:00 80.5 12.3 23.8 80.5 80.5 14.0 18.9 14.5 270.0 269.2 0.00 0.1496561 75.2
2020-09-27 11:40:00 80.3 11.3 21.6 80.3 80.3 21.7 23.0 16.7 273.3 277.3 0.00 0.1509905 75.2
2020-09-27 11:45:00 80.2 12.1 23.2 80.2 80.2 11.7 21.5 14.3 283.3 274.2 0.00 0.1511051 75.3
2020-09-27 11:50:00 80.2 11.4 21.8 80.2 80.2 18.3 22.1 15.3 244.8 264.4 0.00 0.1496793 75.3
2020-09-27 11:55:00 79.4 12.2 22.6 79.4 79.4 14.0 21.4 16.4 317.9 283.2 0.00 0.1467860 75.4
2020-09-27 12:00:00 80.2 12.3 23.6 80.2 80.2 15.6 19.0 13.3 303.6 291.6 0.00 0.1553979 75.5
2020-09-27 12:05:00 80.4 12.2 23.6 80.4 80.4 17.6 21.7 15.2 261.4 275.4 0.00 0.1554310 75.5
2020-09-27 12:10:00 80.3 11.9 22.9 80.3 80.3 18.1 19.0 14.8 266.8 284.3 0.00 0.1566758 75.6
2020-09-27 12:15:00 81.3 10.9 21.6 81.3 81.3 20.1 20.1 14.4 271.3 269.6 0.00 0.1575489 75.7
2020-09-27 12:20:00 81.4 10.8 21.4 81.4 81.4 16.2 19.2 15.5 278.1 272.1 0.00 0.1576883 75.8
2020-09-27 12:25:00 81.3 10.6 20.9 81.3 81.3 20.5 20.5 15.0 278.4 274.1 0.00 0.1578606 75.8
2020-09-27 12:30:00 81.1 10.7 21.0 81.1 81.1 19.0 21.9 17.1 299.8 272.9 0.00 0.1582814 75.9
2020-09-27 12:35:00 81.9 11.4 23.1 81.9 81.9 12.8 18.1 14.0 302.2 284.5 0.00 0.1588778 76.0
2020-09-27 12:40:00 81.6 11.7 23.5 81.6 81.6 12.4 23.9 16.4 286.2 281.4 0.00 0.1588665 76.1
2020-09-27 12:45:00 81.0 11.1 21.7 81.0 81.0 17.1 24.2 17.1 313.0 286.1 0.00 0.1578691 76.2
2020-09-27 12:50:00 81.6 11.3 22.7 81.6 81.6 12.6 21.5 16.3 301.4 284.7 0.00 0.1578256 76.3
2020-09-27 12:55:00 81.9 10.7 21.6 81.9 81.9 15.3 18.9 15.5 284.6 276.0 0.00 0.1571359 76.4
2020-09-27 13:00:00 82.2 11.0 22.6 82.2 82.2 14.0 20.3 13.6 279.7 274.1 0.00 0.1570085 76.5
2020-09-27 13:05:00 81.6 11.1 22.2 81.6 81.6 11.7 20.8 14.0 286.3 275.0 0.00 0.1560583 76.6
2020-09-27 13:10:00 81.6 12.0 24.0 81.6 81.6 6.7 19.6 13.1 271.0 262.4 0.00 0.1557322 76.7
2020-09-27 13:15:00 82.9 11.5 24.0 82.9 82.9 5.8 12.4 9.2 261.6 265.5 0.00 0.1553237 76.8
2020-09-27 13:20:00 83.5 10.1 21.5 83.5 83.5 13.1 15.3 10.2 255.1 276.7 0.00 0.1537237 76.9
2020-09-27 13:25:00 83.2 9.8 20.4 83.2 83.2 14.6 17.4 12.9 255.1 267.3 0.00 0.1525247 77.0
2020-09-27 13:30:00 83.4 10.3 21.7 83.4 83.4 9.4 18.1 13.5 267.4 271.4 0.00 0.1533688 77.1
2020-09-27 13:35:00 83.0 9.5 19.5 83.0 83.0 11.7 20.3 15.0 311.7 288.0 0.00 0.1528142 77.2
2020-09-27 13:40:00 83.6 9.5 20.1 83.6 83.6 13.0 19.9 12.5 289.7 288.0 0.00 0.1501946 77.3
2020-09-27 13:45:00 83.0 9.3 19.2 83.0 83.0 20.1 20.1 15.1 300.5 283.2 0.00 0.1493262 77.4
2020-09-27 13:50:00 82.7 9.7 19.8 82.7 82.7 9.4 21.9 14.8 272.6 284.1 0.00 0.1488751 77.6
2020-09-27 13:55:00 83.1 9.3 19.2 83.1 83.1 15.5 18.7 13.2 294.1 283.0 0.00 0.1476625 77.7
2020-09-27 14:00:00 84.5 9.3 20.3 84.5 84.5 16.5 19.0 13.2 270.1 273.1 0.00 0.1474756 77.8
2020-09-27 14:05:00 84.6 9.6 21.0 84.6 84.6 9.0 24.2 13.3 247.2 284.1 0.00 0.1436804 77.9
2020-09-27 14:10:00 84.0 9.2 19.6 84.0 84.0 16.4 20.3 13.6 256.9 281.7 0.00 0.1426138 78.0
2020-09-27 14:15:00 84.0 9.2 19.5 84.0 84.0 14.0 17.8 13.8 276.3 279.8 0.00 0.1408092 78.2
2020-09-27 14:20:00 83.6 9.4 19.7 83.6 83.6 14.4 24.6 16.5 292.3 297.2 0.00 0.1395873 78.3
2020-09-27 14:25:00 83.8 9.9 21.1 83.8 83.8 12.1 18.9 14.0 266.9 292.6 0.00 0.1388349 78.4
2020-09-27 14:30:00 83.3 9.7 20.3 83.3 83.3 12.2 26.9 15.2 264.8 287.4 0.00 0.1371544 78.5
2020-09-27 14:35:00 83.6 9.4 19.9 83.6 83.6 16.4 21.2 14.2 299.4 295.3 0.00 0.1358184 78.6
2020-09-27 14:40:00 82.8 10.3 21.3 82.8 82.8 15.5 22.1 16.2 321.7 306.1 0.00 0.1309674 78.7
2020-09-27 14:45:00 83.2 9.8 20.6 83.2 83.2 17.1 23.5 16.0 315.4 305.7 0.00 0.1299478 78.8
2020-09-27 14:50:00 83.1 10.3 21.5 83.1 83.1 9.6 18.9 12.8 286.6 284.9 0.00 0.1287550 78.9
2020-09-27 14:55:00 83.3 9.5 19.8 83.3 83.3 19.9 19.9 14.4 283.0 298.3 0.00 0.1252594 79.0
2020-09-27 15:00:00 83.0 9.8 20.3 83.0 83.0 10.1 20.8 13.6 293.2 283.3 0.00 0.1224801 79.1
2020-09-27 15:05:00 82.8 10.6 22.0 82.8 82.8 11.3 20.6 15.4 279.7 275.6 0.00 0.1211394 79.2
2020-09-27 15:10:00 83.1 10.2 21.3 83.1 83.1 12.6 18.9 13.0 310.6 295.2 0.00 0.1192168 79.4
2020-09-27 15:15:00 82.3 10.6 21.6 82.3 82.3 10.6 20.1 16.0 282.1 299.4 0.00 0.1175122 79.4
2020-09-27 15:20:00 82.8 10.0 20.6 82.8 82.8 14.9 20.3 14.6 253.3 278.2 0.00 0.1140625 79.6
2020-09-27 15:25:00 83.0 9.9 20.7 83.0 83.0 14.7 18.1 13.9 270.4 285.1 0.00 0.1122660 79.7
2020-09-27 15:30:00 82.8 10.3 21.3 82.8 82.8 13.0 20.1 14.1 302.3 295.7 0.00 0.1102366 79.8
2020-09-27 15:35:00 83.3 10.5 22.1 83.3 83.3 18.7 21.0 12.9 261.0 285.2 0.00 0.1075216 79.8
2020-09-27 15:40:00 83.3 9.8 20.6 83.3 83.3 16.5 21.0 15.0 296.9 278.4 0.00 0.1056407 79.9
2020-09-27 15:45:00 82.7 10.4 21.5 82.7 82.7 14.0 22.3 15.3 294.5 281.4 0.00 0.1022120 80.0
2020-09-27 15:50:00 82.9 10.5 21.8 82.9 82.9 17.2 18.0 13.8 272.1 266.4 0.00 0.1000896 80.1
2020-09-27 15:55:00 82.5 10.7 22.0 82.5 82.5 11.5 19.2 14.7 318.6 290.8 0.00 0.0974303 80.2
2020-09-27 16:00:00 83.1 10.6 22.2 83.1 83.1 10.8 19.2 13.6 303.5 296.4 0.00 0.0938778 80.3
2020-09-27 16:05:00 82.7 10.5 21.8 82.7 82.7 10.3 20.8 15.5 306.4 299.8 0.00 0.0915764 80.3
2020-09-27 16:10:00 83.0 10.3 21.5 83.0 83.0 16.7 16.7 12.8 302.1 294.5 0.00 0.0881249 80.4
2020-09-27 16:15:00 82.6 10.4 21.3 82.6 82.6 16.2 19.4 15.4 291.8 275.6 0.00 0.0859236 80.5
2020-09-27 16:20:00 82.4 10.8 22.1 82.4 82.4 13.9 23.7 15.9 284.5 291.1 0.00 0.0824401 80.6
2020-09-27 16:25:00 82.7 10.8 22.4 82.7 82.7 11.0 18.1 13.5 257.8 271.6 0.00 0.0802076 80.6
2020-09-27 16:30:00 82.8 11.0 23.0 82.8 82.8 7.6 16.5 11.9 286.8 283.0 0.00 0.0774011 80.7
2020-09-27 16:35:00 82.1 11.2 22.7 82.1 82.1 10.5 16.5 12.9 303.6 289.0 0.00 0.0742068 80.7
2020-09-27 16:40:00 82.1 10.9 22.1 82.1 82.1 16.2 19.0 14.1 261.4 285.6 0.00 0.0716962 80.8
2020-09-27 16:45:00 82.1 11.0 22.4 82.1 82.1 16.7 18.9 15.3 279.0 280.7 0.00 0.0687817 80.8
2020-09-27 16:50:00 82.0 10.9 22.0 82.0 82.0 13.9 20.3 15.8 285.9 279.0 0.00 0.0653136 80.9
2020-09-27 16:55:00 81.9 11.3 22.9 81.9 81.9 13.1 17.1 12.7 318.5 298.9 0.00 0.0620177 80.9
2020-09-27 17:00:00 81.9 11.6 23.4 81.9 81.9 6.7 17.2 12.4 276.8 299.0 0.00 0.0586287 80.9
2020-09-27 17:05:00 82.4 11.2 22.9 82.4 82.4 11.9 15.6 11.7 295.6 289.5 0.00 0.0557703 81.0
2020-09-27 17:10:00 81.8 11.1 22.4 81.8 81.8 13.0 16.5 12.3 283.1 294.6 0.00 0.0525297 81.0
2020-09-27 17:15:00 81.8 11.0 22.3 81.8 81.8 11.5 19.9 14.5 309.8 281.8 0.00 0.0497010 81.0
2020-09-27 17:20:00 81.8 11.0 22.1 81.8 81.8 15.5 18.9 14.3 280.0 284.7 0.00 0.0465448 81.0
2020-09-27 17:25:00 81.5 10.9 21.7 81.5 81.5 15.6 19.4 13.2 250.3 293.0 0.00 0.0430124 81.0
2020-09-27 17:30:00 81.6 10.9 21.9 81.6 81.6 15.1 17.6 13.8 275.6 279.9 0.00 0.0401116 81.0
2020-09-27 17:35:00 81.3 11.3 22.4 81.3 81.3 11.5 18.3 12.9 304.8 289.7 0.00 0.0368793 81.0
2020-09-27 17:40:00 81.2 11.1 21.8 81.2 81.2 14.4 14.9 10.8 289.1 293.0 0.00 0.0337231 81.0
2020-09-27 17:45:00 81.1 11.1 21.9 81.1 81.1 10.6 14.4 11.0 287.9 277.9 0.00 0.0307628 81.0
2020-09-27 17:50:00 80.9 11.3 22.0 80.9 80.9 11.7 17.1 10.4 284.4 282.2 0.00 0.0279627 81.0
2020-09-27 17:55:00 80.7 11.7 22.7 80.7 80.7 7.6 12.6 9.1 261.5 287.9 0.00 0.0251545 81.0
2020-09-27 18:00:00 80.6 11.3 21.9 80.6 80.6 9.9 14.6 11.2 280.1 281.8 0.00 0.0226214 81.0
2020-09-27 18:05:00 80.3 11.4 22.0 80.3 80.3 10.8 12.1 9.7 278.1 281.0 0.00 0.0195585 81.0
2020-09-27 18:10:00 80.1 12.0 22.8 80.1 80.1 8.7 11.0 8.0 311.7 291.7 0.00 0.0166566 81.0
2020-09-27 18:15:00 79.9 12.1 22.9 79.9 79.9 7.8 14.7 9.2 261.6 295.8 0.00 0.0140594 80.9
2020-09-27 18:20:00 79.4 12.0 22.4 79.4 79.4 9.7 12.8 8.8 303.0 299.4 0.00 0.0116057 80.9
2020-09-27 18:25:00 79.2 12.4 23.0 79.2 79.2 6.2 9.4 7.1 293.9 287.2 0.00 0.0087775 80.9
2020-09-27 18:30:00 78.8 12.4 22.6 78.8 78.8 9.4 13.3 8.2 298.8 295.6 0.00 0.0061754 80.8
2020-09-27 18:35:00 78.4 12.7 22.9 78.4 78.4 8.8 13.7 10.5 304.4 303.9 0.00 0.0037040 80.8
2020-09-27 18:40:00 77.4 13.3 23.2 77.4 77.4 8.0 10.1 8.0 307.9 304.5 0.00 0.0009764 80.7
2020-09-27 18:45:00 76.6 13.8 23.6 76.6 76.6 8.8 12.1 8.8 307.1 305.7 0.00 0.0000000 80.7
2020-09-27 18:50:00 75.8 14.2 23.5 75.8 75.8 11.2 11.2 8.6 305.8 307.4 0.00 0.0000000 80.6
2020-09-27 18:55:00 75.2 14.5 23.6 75.2 75.2 8.5 10.8 8.8 305.5 305.0 0.00 0.0000000 80.6
2020-09-27 19:00:00 74.8 14.8 23.8 74.8 74.8 8.8 10.8 8.8 305.9 306.8 0.00 0.0000000 80.5
2020-09-27 19:05:00 74.1 15.3 24.0 74.1 74.1 5.8 9.4 7.6 309.9 309.3 0.00 0.0000000 80.4
2020-09-27 19:10:00 73.0 15.9 23.9 73.0 73.0 6.3 8.0 6.5 316.4 312.0 0.00 0.0000000 80.3
2020-09-27 19:15:00 73.1 24.4 34.6 73.1 73.1 16.4 21.9 12.8 16.3 337.2 0.00 0.0000000 80.3
2020-09-27 19:20:00 69.3 30.3 36.8 69.3 69.3 13.1 21.4 16.1 25.0 24.9 0.00 0.0000000 80.2
2020-09-27 19:25:00 68.4 32.2 37.5 68.4 68.4 16.7 17.4 13.5 33.1 30.8 0.00 0.0000000 80.1
2020-09-27 19:30:00 67.5 34.1 38.2 67.5 67.5 17.4 18.0 14.1 41.5 47.8 0.00 0.0000000 80.0
2020-09-27 19:35:00 66.7 35.8 38.7 66.7 66.7 19.2 19.8 15.5 41.8 48.7 0.00 0.0000000 79.9
2020-09-27 19:40:00 65.9 36.4 38.5 65.9 65.9 17.8 17.8 14.0 43.6 50.0 0.00 0.0000000 79.9
2020-09-27 19:45:00 65.4 36.7 38.2 65.4 65.4 13.0 16.9 13.7 47.4 48.5 0.00 0.0000000 79.8
2020-09-27 19:50:00 65.0 36.9 38.0 65.0 65.0 16.0 16.9 13.2 60.5 50.3 0.00 0.0000000 79.7
2020-09-27 19:55:00 64.7 37.5 38.1 64.7 64.7 10.5 16.5 12.4 52.9 51.2 0.00 0.0000000 79.6

Data is courtesy of the NM Climate Center. DO NOT USE IN LEGAL PROCEEDINGS.